CheckWX is a tool to help pilots better visualize weather data.  It is not intended as a substitute for an official pre-flight weather briefing.

05:32:04 UTC

KDEW METAR
Deer Park Airport
Deer Park, Washington, USA
Current

8 mins ago

KDEW 200524Z AUTO 04003KT 2 1/2SM -SN BR BKN014 OVC085 M06/M08 A2982 RMK AO2 P0000 T10611078
Observed
Feb-20 @ 05:24 UTC
Wind
  • 040° at 3 KTS
Visibility
4,023 meters
Flight Rules
IFR
Conditions
Light Snow, Mist
Cloud Levels
  • Broken at 1,400' AGL
  • Overcast at 8,500' AGL
Temperature
-6°C / 21°F
Dewpoint
-8°C / 18°F
Humidity
86%
Altimeter
29.82" Hg
Pressure
1009.82 hPa
Current Rain
0.01"
Previous

39 mins ago

KDEW 200453Z AUTO 03003KT 3SM -SN BR OVC012 M07/M08 A2983 RMK AO2 SNE0357B05 SLP136 P0000 T10671078
Observed
Feb-20 @ 04:53 UTC
Wind
  • 030° at 3 KTS
Visibility
4,828 meters
Flight Rules
MVFR
Conditions
Light Snow, Mist
Cloud Levels
  • Overcast at 1,200' AGL
Temperature
-7°C / 19°F
Dewpoint
-8°C / 18°F
Humidity
93%
Altimeter
29.83" Hg
Pressure
1013.6 hPa
Current Rain
0.01"
Previous

59 mins ago

KDEW 200433Z AUTO 00000KT 3SM -SN BR OVC012 M07/M08 A2984 RMK AO2 SNE0357B05 P0000 T10671078
Observed
Feb-20 @ 04:33 UTC
Visibility
4,828 meters
Flight Rules
MVFR
Conditions
Light Snow, Mist
Cloud Levels
  • Overcast at 1,200' AGL
Temperature
-7°C / 19°F
Dewpoint
-8°C / 18°F
Humidity
93%
Altimeter
29.84" Hg
Pressure
1010.52 hPa
Current Rain
0.01"